createdAt,value
2018-06-09T00:00:28.476Z,60.11
2018-06-09T00:01:00.094Z,59.92
2018-06-09T00:01:31.687Z,59.71
2018-06-09T00:02:03.270Z,60.08
2018-06-09T00:02:34.849Z,59.89
2018-06-09T00:03:06.430Z,60.12
2018-06-09T00:03:38.000Z,59.88
2018-06-09T00:04:09.591Z,59.91
2018-06-09T00:04:41.177Z,60.12
2018-06-09T00:05:12.763Z,60.06
2018-06-09T00:05:44.386Z,60.20
2018-06-09T00:06:15.993Z,60.07
2018-06-09T00:06:47.574Z,60.11
2018-06-09T00:07:19.165Z,60.15
2018-06-09T00:07:50.777Z,60.02
2018-06-09T00:08:22.361Z,59.98
2018-06-09T00:08:53.933Z,60.32
2018-06-09T00:09:25.521Z,59.79
2018-06-09T00:09:57.101Z,59.88
2018-06-09T00:10:28.672Z,59.94
2018-06-09T00:11:00.283Z,59.44
2018-06-09T00:11:31.889Z,58.94
2018-06-09T00:12:03.501Z,59.46
2018-06-09T00:12:35.109Z,59.48
2018-06-09T00:13:06.713Z,60.01
2018-06-09T00:13:38.294Z,60.15
2018-06-09T00:14:09.897Z,60.09
2018-06-09T00:14:41.491Z,59.98
2018-06-09T00:15:13.097Z,60.13
2018-06-09T00:15:44.754Z,60.25
2018-06-09T00:16:16.351Z,60.30
2018-06-09T00:16:47.924Z,60.19
2018-06-09T00:17:19.520Z,60.31
2018-06-09T00:17:51.091Z,60.29
2018-06-09T00:18:22.693Z,60.20
2018-06-09T00:18:54.281Z,60.15
2018-06-09T00:19:25.893Z,60.17
2018-06-09T00:19:57.491Z,60.00
2018-06-09T00:20:29.097Z,60.08
2018-06-09T00:21:00.753Z,60.26
2018-06-09T00:21:32.361Z,60.33
2018-06-09T00:22:03.939Z,60.22
2018-06-09T00:22:35.523Z,60.35
2018-06-09T00:23:07.103Z,60.35
2018-06-09T00:23:38.696Z,59.93
2018-06-09T00:24:10.301Z,60.20
2018-06-09T00:24:41.909Z,60.17
2018-06-09T00:25:13.494Z,60.23
2018-06-09T00:25:45.088Z,60.30
2018-06-09T00:26:16.745Z,60.22
2018-06-09T00:26:48.356Z,60.07
2018-06-09T00:27:19.928Z,60.09
2018-06-09T00:27:51.511Z,60.40
2018-06-09T00:28:23.088Z,60.36
2018-06-09T00:28:54.700Z,60.26
2018-06-09T00:29:26.304Z,60.55
2018-06-09T00:29:57.884Z,60.45
2018-06-09T00:30:29.452Z,60.62
2018-06-09T00:31:01.064Z,60.57
2018-06-09T00:31:32.669Z,60.62
2018-06-09T00:32:04.300Z,60.42
2018-06-09T00:32:35.876Z,60.37
2018-06-09T00:33:07.453Z,60.57
2018-06-09T00:33:39.020Z,60.70
2018-06-09T00:34:10.597Z,60.67
2018-06-09T00:34:42.197Z,60.79
2018-06-09T00:35:13.801Z,60.83
2018-06-09T00:35:45.389Z,60.74
2018-06-09T00:36:16.960Z,60.99
2018-06-09T00:36:48.536Z,60.94
2018-06-09T00:37:20.173Z,60.92
2018-06-09T00:37:51.781Z,61.01
2018-06-09T00:38:23.363Z,60.99
2018-06-09T00:38:54.965Z,61.05
2018-06-09T00:39:26.578Z,61.01
2018-06-09T00:39:58.180Z,61.06
2018-06-09T00:40:29.761Z,61.15
2018-06-09T00:41:01.361Z,61.03
2018-06-09T00:41:32.984Z,61.09
2018-06-09T00:42:04.569Z,61.38
2018-06-09T00:42:36.174Z,61.56
2018-06-09T00:43:07.836Z,61.71
2018-06-09T00:43:39.406Z,61.74
2018-06-09T00:44:10.985Z,61.61
2018-06-09T00:44:43.581Z,61.69
2018-06-09T00:45:15.162Z,61.81
2018-06-09T00:45:46.770Z,61.69
2018-06-09T00:46:18.382Z,61.56
2018-06-09T00:46:50.025Z,61.51
2018-06-09T00:47:21.630Z,61.46
2018-06-09T00:47:53.237Z,61.40
2018-06-09T00:48:24.812Z,62.10
2018-06-09T00:48:56.408Z,61.78
2018-06-09T00:49:27.990Z,61.92
2018-06-09T00:49:59.596Z,61.90
2018-06-09T00:50:31.172Z,61.91
2018-06-09T00:51:02.773Z,61.91
2018-06-09T00:51:34.385Z,61.81
2018-06-09T00:52:06.034Z,61.87
2018-06-09T00:52:37.631Z,61.75
2018-06-09T00:53:09.245Z,61.74
2018-06-09T00:53:40.837Z,61.69
2018-06-09T00:54:12.441Z,61.96
2018-06-09T00:54:44.065Z,61.98
2018-06-09T00:55:15.655Z,61.92
2018-06-09T00:55:47.241Z,62.12
2018-06-09T00:56:18.850Z,62.02
2018-06-09T00:56:50.451Z,62.32
2018-06-09T00:57:22.061Z,62.24
2018-06-09T00:57:53.669Z,62.29
2018-06-09T00:58:25.257Z,62.09
2018-06-09T00:58:56.850Z,61.94
2018-06-09T00:59:28.497Z,61.95
2018-06-09T01:00:00.092Z,61.84
2018-06-09T01:00:31.693Z,62.09
2018-06-09T01:01:03.269Z,61.94
2018-06-09T01:01:34.860Z,61.92
2018-06-09T01:02:06.468Z,62.12
2018-06-09T01:02:38.065Z,62.17
2018-06-09T01:03:09.640Z,62.29
2018-06-09T01:03:41.249Z,62.19
2018-06-09T01:04:12.856Z,62.12
2018-06-09T01:04:44.472Z,62.12
2018-06-09T01:05:16.048Z,62.15
2018-06-09T01:05:47.640Z,62.25
2018-06-09T01:06:19.220Z,62.36
2018-06-09T01:06:50.833Z,62.30
2018-06-09T01:07:22.437Z,62.25
2018-06-09T01:07:54.128Z,62.25
2018-06-09T01:08:25.733Z,62.51
2018-06-09T01:08:57.332Z,62.44
2018-06-09T01:09:28.938Z,62.46
2018-06-09T01:10:00.546Z,62.61
2018-06-09T01:10:32.159Z,62.72
2018-06-09T01:11:03.765Z,62.23
2018-06-09T01:11:35.349Z,62.23
2018-06-09T01:12:07.098Z,62.51
2018-06-09T01:12:38.671Z,62.79
2018-06-09T01:13:10.250Z,62.48
2018-06-09T01:13:41.826Z,62.40
2018-06-09T01:14:13.400Z,62.68
2018-06-09T01:14:44.977Z,62.44
2018-06-09T01:15:16.566Z,62.55
2018-06-09T01:15:48.142Z,62.58
2018-06-09T01:16:19.745Z,62.49
2018-06-09T01:16:51.366Z,62.41
2018-06-09T01:17:22.946Z,62.38
2018-06-09T01:17:54.530Z,62.37
2018-06-09T01:18:26.100Z,62.19
2018-06-09T01:18:57.695Z,62.15
2018-06-09T01:19:29.301Z,62.29
2018-06-09T01:20:00.890Z,62.59
2018-06-09T01:20:32.477Z,62.55
2018-06-09T01:21:04.062Z,62.30
2018-06-09T01:21:35.665Z,62.12
2018-06-09T01:22:07.293Z,62.28
2018-06-09T01:22:38.860Z,62.14
2018-06-09T01:23:10.466Z,62.12
2018-06-09T01:23:42.050Z,62.86
2018-06-09T01:24:13.676Z,62.27
2018-06-09T01:24:45.283Z,62.12
2018-06-09T01:25:16.888Z,62.13
2018-06-09T01:25:48.473Z,62.29
2018-06-09T01:26:20.056Z,62.11
2018-06-09T01:26:51.687Z,62.11
2018-06-09T01:27:23.302Z,62.41
2018-06-09T01:27:54.887Z,61.95
2018-06-09T01:28:26.489Z,62.04
2018-06-09T01:28:58.114Z,61.89
2018-06-09T01:29:29.753Z,62.11
2018-06-09T01:30:01.338Z,62.08
2018-06-09T01:30:32.908Z,61.98
2018-06-09T01:31:04.509Z,62.43
2018-06-09T01:31:36.084Z,62.36
2018-06-09T01:32:07.669Z,61.97
2018-06-09T01:32:39.245Z,61.76
2018-06-09T01:33:10.920Z,62.09
2018-06-09T01:33:42.495Z,62.14
2018-06-09T01:34:14.138Z,62.02
2018-06-09T01:34:45.750Z,61.93
2018-06-09T01:35:17.356Z,61.92
2018-06-09T01:35:48.938Z,61.69
2018-06-09T01:36:20.537Z,61.73
2018-06-09T01:36:52.108Z,61.86
2018-06-09T01:37:23.785Z,61.85
2018-06-09T01:37:55.369Z,62.15
2018-06-09T01:38:26.959Z,61.92
2018-06-09T01:38:58.605Z,62.46
2018-06-09T01:39:30.217Z,62.71
2018-06-09T01:40:01.794Z,62.31
2018-06-09T01:40:33.396Z,62.06
2018-06-09T01:41:04.976Z,62.24
2018-06-09T01:41:36.548Z,61.88
2018-06-09T01:42:08.127Z,61.79
2018-06-09T01:42:39.774Z,62.07
2018-06-09T01:43:11.357Z,61.89
2018-06-09T01:43:42.962Z,61.87
2018-06-09T01:44:14.591Z,61.89
2018-06-09T01:44:46.174Z,61.95
2018-06-09T01:45:17.775Z,61.86
2018-06-09T01:45:49.358Z,61.93
2018-06-09T01:46:20.936Z,61.96
2018-06-09T01:46:52.514Z,62.25
2018-06-09T01:47:24.117Z,62.20
2018-06-09T01:47:55.705Z,61.97
2018-06-09T01:48:27.290Z,61.79
2018-06-09T01:48:58.879Z,61.87
2018-06-09T01:49:30.512Z,61.77
2018-06-09T01:50:02.109Z,61.88
2018-06-09T01:50:33.694Z,61.94
2018-06-09T01:51:05.299Z,62.18
2018-06-09T01:51:36.886Z,62.37
2018-06-09T01:52:08.495Z,62.29
2018-06-09T01:52:40.074Z,62.13
2018-06-09T01:53:11.749Z,62.04
2018-06-09T01:53:43.327Z,61.93
2018-06-09T01:54:14.929Z,61.84
2018-06-09T01:54:46.538Z,61.82
2018-06-09T01:55:18.122Z,61.79
2018-06-09T01:55:49.784Z,61.87
2018-06-09T01:56:21.374Z,61.92
2018-06-09T01:56:52.951Z,61.83
2018-06-09T01:57:24.529Z,61.87
2018-06-09T01:57:56.125Z,61.64
2018-06-09T01:58:27.778Z,61.54
2018-06-09T01:58:59.369Z,61.77
2018-06-09T01:59:30.960Z,61.80
2018-06-09T02:00:02.556Z,61.77
2018-06-09T02:00:34.161Z,61.95
2018-06-09T02:01:05.769Z,61.71
2018-06-09T02:01:37.411Z,61.69
2018-06-09T02:02:08.984Z,61.75
2018-06-09T02:02:40.641Z,61.83
2018-06-09T02:03:12.249Z,61.63
2018-06-09T02:03:43.844Z,62.03
2018-06-09T02:04:15.426Z,61.90
2018-06-09T02:04:47.029Z,61.95
2018-06-09T02:05:18.608Z,61.87
2018-06-09T02:05:50.210Z,61.63
2018-06-09T02:06:21.801Z,61.51
2018-06-09T02:06:53.393Z,61.48
2018-06-09T02:07:24.988Z,61.61
2018-06-09T02:07:56.608Z,61.58
2018-06-09T02:08:28.190Z,61.51
2018-06-09T02:08:59.830Z,61.46
2018-06-09T02:09:31.413Z,61.48
2018-06-09T02:10:03.009Z,61.53
2018-06-09T02:10:34.622Z,61.61
2018-06-09T02:11:06.209Z,61.61
2018-06-09T02:11:37.818Z,61.53
2018-06-09T02:12:09.426Z,61.81
2018-06-09T02:12:40.997Z,61.95
2018-06-09T02:13:12.595Z,61.86
2018-06-09T02:13:44.186Z,61.69
2018-06-09T02:14:15.807Z,62.08
2018-06-09T02:14:47.385Z,62.14
2018-06-09T02:15:18.969Z,62.07
2018-06-09T02:15:50.574Z,61.86
2018-06-09T02:16:22.221Z,61.44
2018-06-09T02:16:53.870Z,61.50
2018-06-09T02:17:25.444Z,61.76
2018-06-09T02:17:57.025Z,62.05
2018-06-09T02:18:28.645Z,62.15
2018-06-09T02:19:00.219Z,62.17
2018-06-09T02:19:31.826Z,62.07
2018-06-09T02:20:03.410Z,62.32
2018-06-09T02:20:35.014Z,62.15
2018-06-09T02:21:06.611Z,62.00
2018-06-09T02:21:38.197Z,62.07
2018-06-09T02:22:09.807Z,61.94
2018-06-09T02:22:41.390Z,62.11
2018-06-09T02:23:12.973Z,61.44
2018-06-09T02:23:44.590Z,61.67
2018-06-09T02:24:16.197Z,61.47
2018-06-09T02:24:47.791Z,61.58
2018-06-09T02:25:19.402Z,61.81
2018-06-09T02:25:50.985Z,61.71
2018-06-09T02:26:22.585Z,61.65
2018-06-09T02:26:54.164Z,61.44
2018-06-09T02:27:25.769Z,61.18
2018-06-09T02:27:57.341Z,61.40
2018-06-09T02:28:28.926Z,61.26
2018-06-09T02:29:00.509Z,61.04
2018-06-09T02:29:32.113Z,61.06
2018-06-09T02:30:03.727Z,61.16
2018-06-09T02:30:35.338Z,61.12
2018-06-09T02:31:06.936Z,61.14
2018-06-09T02:31:38.561Z,61.14
2018-06-09T02:32:10.146Z,61.08
2018-06-09T02:32:41.729Z,61.14
2018-06-09T02:33:13.320Z,60.74
2018-06-09T02:33:44.902Z,60.97
2018-06-09T02:34:16.481Z,61.25
2018-06-09T02:34:48.077Z,61.34
2018-06-09T02:35:19.714Z,61.13
2018-06-09T02:35:51.292Z,60.78
2018-06-09T02:36:22.884Z,60.86
2018-06-09T02:36:54.475Z,61.17
2018-06-09T02:37:26.078Z,61.05
2018-06-09T02:37:57.672Z,60.99
2018-06-09T02:38:29.276Z,60.89
2018-06-09T02:39:00.852Z,60.86
2018-06-09T02:39:32.469Z,60.76
2018-06-09T02:40:04.040Z,60.81
2018-06-09T02:40:35.705Z,60.80
2018-06-09T02:41:07.293Z,60.89
2018-06-09T02:41:38.894Z,60.69
2018-06-09T02:42:10.481Z,60.82
2018-06-09T02:42:42.058Z,60.73
2018-06-09T02:43:13.632Z,60.98
2018-06-09T02:43:45.217Z,60.53
2018-06-09T02:44:16.812Z,61.07
2018-06-09T02:44:48.422Z,60.58
2018-06-09T02:45:20.014Z,60.62
2018-06-09T02:45:51.633Z,60.70
2018-06-09T02:46:23.210Z,60.82
2018-06-09T02:46:54.801Z,60.77
2018-06-09T02:47:26.409Z,60.82
2018-06-09T02:47:57.980Z,60.87
2018-06-09T02:48:29.627Z,60.81
2018-06-09T02:49:01.224Z,60.83
2018-06-09T02:49:32.890Z,61.06
2018-06-09T02:50:04.480Z,60.95
2018-06-09T02:50:36.094Z,60.97
2018-06-09T02:51:07.663Z,60.87
2018-06-09T02:51:39.261Z,60.75
2018-06-09T02:52:10.866Z,60.92
2018-06-09T02:52:42.464Z,60.85
2018-06-09T02:53:14.069Z,60.90
2018-06-09T02:53:45.757Z,61.09
2018-06-09T02:54:17.355Z,60.95
2018-06-09T02:54:48.985Z,60.61
2018-06-09T02:55:20.566Z,60.90
2018-06-09T02:55:52.174Z,60.95
2018-06-09T02:56:23.752Z,60.73
2018-06-09T02:56:55.346Z,60.92
2018-06-09T02:57:26.942Z,60.95
2018-06-09T02:57:58.540Z,60.92
2018-06-09T02:58:30.113Z,60.94
2018-06-09T02:59:01.702Z,60.89
2018-06-09T02:59:33.357Z,60.84
2018-06-09T03:00:04.941Z,60.99
2018-06-09T03:00:36.529Z,60.79
2018-06-09T03:01:08.103Z,60.33
2018-06-09T03:01:39.685Z,60.39
2018-06-09T03:02:11.252Z,60.42
2018-06-09T03:02:42.869Z,60.31
2018-06-09T03:03:14.478Z,60.53
2018-06-09T03:03:46.098Z,60.55
2018-06-09T03:04:17.686Z,60.70
2018-06-09T03:04:49.296Z,60.92
2018-06-09T03:05:20.887Z,60.45
2018-06-09T03:05:52.501Z,60.57
2018-06-09T03:06:24.109Z,60.59
2018-06-09T03:06:55.703Z,60.85
2018-06-09T03:07:27.305Z,61.76
2018-06-09T03:07:58.894Z,61.42
2018-06-09T03:08:30.481Z,61.80
2018-06-09T03:09:02.081Z,61.28
2018-06-09T03:09:33.685Z,61.71
2018-06-09T03:10:05.271Z,61.84
2018-06-09T03:10:36.898Z,61.71
2018-06-09T03:11:08.478Z,61.69
2018-06-09T03:11:40.090Z,61.54
2018-06-09T03:12:11.682Z,61.21
2018-06-09T03:12:43.272Z,61.39
2018-06-09T03:13:14.878Z,61.42
2018-06-09T03:13:46.460Z,61.69
2018-06-09T03:14:18.057Z,61.57
2018-06-09T03:14:49.656Z,61.86
2018-06-09T03:15:21.237Z,61.73
2018-06-09T03:15:52.881Z,61.82
2018-06-09T03:16:24.469Z,61.81
2018-06-09T03:16:56.068Z,61.34
2018-06-09T03:17:27.676Z,61.33
2018-06-09T03:17:59.264Z,61.33
2018-06-09T03:18:30.831Z,61.46
2018-06-09T03:19:02.417Z,61.19
2018-06-09T03:19:34.028Z,61.42
2018-06-09T03:20:05.596Z,61.18
2018-06-09T03:20:37.205Z,61.21
2018-06-09T03:21:08.809Z,61.36
2018-06-09T03:21:40.413Z,61.38
2018-06-09T03:22:12.009Z,61.12
2018-06-09T03:22:43.602Z,61.06
2018-06-09T03:23:15.168Z,61.54
2018-06-09T03:23:46.736Z,61.54
2018-06-09T03:24:18.311Z,61.96
2018-06-09T03:24:49.961Z,61.48
2018-06-09T03:25:21.546Z,61.76
2018-06-09T03:25:53.145Z,62.12
2018-06-09T03:26:24.724Z,62.01
2018-06-09T03:26:56.418Z,61.46
2018-06-09T03:27:28.026Z,61.88
2018-06-09T03:27:59.633Z,61.50
2018-06-09T03:28:31.227Z,61.57
2018-06-09T03:29:02.834Z,61.56
2018-06-09T03:29:34.432Z,61.52
2018-06-09T03:30:06.086Z,62.19
2018-06-09T03:30:37.697Z,62.05
2018-06-09T03:31:09.304Z,62.34
2018-06-09T03:31:40.889Z,62.40
2018-06-09T03:32:12.460Z,62.17
2018-06-09T03:32:44.039Z,62.51
2018-06-09T03:33:15.650Z,62.19
2018-06-09T03:33:47.294Z,62.37
2018-06-09T03:34:18.941Z,62.42
2018-06-09T03:34:50.632Z,62.39
2018-06-09T03:35:22.259Z,62.27
2018-06-09T03:35:53.867Z,62.26
2018-06-09T03:36:25.478Z,62.14
2018-06-09T03:36:57.052Z,62.54
2018-06-09T03:37:28.638Z,62.33
2018-06-09T03:38:00.221Z,62.31
2018-06-09T03:38:31.829Z,62.31
2018-06-09T03:39:03.413Z,62.13
2018-06-09T03:39:34.985Z,62.32
2018-06-09T03:40:06.560Z,62.55
2018-06-09T03:40:38.182Z,62.33
2018-06-09T03:41:09.762Z,62.45
2018-06-09T03:41:41.365Z,62.48
2018-06-09T03:42:12.960Z,62.43
2018-06-09T03:42:44.579Z,62.49
2018-06-09T03:43:16.197Z,62.41
2018-06-09T03:43:47.796Z,62.57
2018-06-09T03:44:19.382Z,62.61
2018-06-09T03:44:50.970Z,62.32
2018-06-09T03:45:22.540Z,62.58
2018-06-09T03:45:54.201Z,62.37
2018-06-09T03:46:25.786Z,62.32
2018-06-09T03:46:57.394Z,62.59
2018-06-09T03:47:28.967Z,62.60
2018-06-09T03:48:00.546Z,62.49
2018-06-09T03:48:32.152Z,62.69
2018-06-09T03:49:03.724Z,62.41
2018-06-09T03:49:35.292Z,62.37
2018-06-09T03:50:06.943Z,62.29
2018-06-09T03:50:38.584Z,62.03
2018-06-09T03:51:10.120Z,61.88
2018-06-09T03:51:41.725Z,62.00
2018-06-09T03:52:13.341Z,62.42
2018-06-09T03:52:44.920Z,62.28
2018-06-09T03:53:16.520Z,62.36
2018-06-09T03:53:48.113Z,62.75
2018-06-09T03:54:19.688Z,62.37
2018-06-09T03:54:51.264Z,62.57
2018-06-09T03:55:22.849Z,62.67
2018-06-09T03:55:54.454Z,62.71
2018-06-09T03:56:26.052Z,62.63
2018-06-09T03:56:57.628Z,62.59
2018-06-09T03:57:29.205Z,62.62
2018-06-09T03:58:00.808Z,62.56
2018-06-09T03:58:32.394Z,62.84
2018-06-09T03:59:03.998Z,62.78
2018-06-09T03:59:35.596Z,62.01
2018-06-09T04:00:07.180Z,62.10
2018-06-09T04:00:38.789Z,62.50
2018-06-09T04:01:10.441Z,62.05
2018-06-09T04:01:42.030Z,62.44
2018-06-09T04:02:13.617Z,62.56
2018-06-09T04:02:45.184Z,62.63
2018-06-09T04:03:16.765Z,62.54
2018-06-09T04:03:48.384Z,62.13
2018-06-09T04:04:19.960Z,63.17
2018-06-09T04:04:51.538Z,63.29
2018-06-09T04:05:23.123Z,62.62
2018-06-09T04:05:54.729Z,62.12
2018-06-09T04:06:26.314Z,62.79
2018-06-09T04:06:57.907Z,62.43
2018-06-09T04:07:29.477Z,62.77
2018-06-09T04:08:01.056Z,62.39
2018-06-09T04:08:32.665Z,62.45
2018-06-09T04:09:04.308Z,62.51
2018-06-09T04:09:35.928Z,62.37
2018-06-09T04:10:07.497Z,62.03
2018-06-09T04:10:39.082Z,62.27
2018-06-09T04:11:10.666Z,62.45
2018-06-09T04:11:42.305Z,62.34
2018-06-09T04:12:13.913Z,62.29
2018-06-09T04:12:45.523Z,62.26
2018-06-09T04:13:17.129Z,62.22
2018-06-09T04:13:48.713Z,62.35
2018-06-09T04:14:20.348Z,62.69
2018-06-09T04:14:51.961Z,62.53
2018-06-09T04:15:23.555Z,62.21
2018-06-09T04:15:55.144Z,62.41
2018-06-09T04:16:26.735Z,62.37
2018-06-09T04:16:58.385Z,62.50
2018-06-09T04:17:29.977Z,62.38
2018-06-09T04:18:01.544Z,62.42
2018-06-09T04:18:33.135Z,62.28
2018-06-09T04:19:04.741Z,62.30
2018-06-09T04:19:36.380Z,62.35
2018-06-09T04:20:07.986Z,62.15
2018-06-09T04:20:39.660Z,62.22
2018-06-09T04:21:11.224Z,62.22
2018-06-09T04:21:42.838Z,62.18
2018-06-09T04:22:14.445Z,62.54
2018-06-09T04:22:46.086Z,62.63
2018-06-09T04:23:17.670Z,62.65
2018-06-09T04:23:49.253Z,62.84
2018-06-09T04:24:20.835Z,62.95
2018-06-09T04:24:52.403Z,62.81
2018-06-09T04:25:23.975Z,62.88
2018-06-09T04:25:55.551Z,63.38
2018-06-09T04:26:27.144Z,62.97
2018-06-09T04:26:58.749Z,63.21
2018-06-09T04:27:30.333Z,63.12
2018-06-09T04:28:01.918Z,62.95
2018-06-09T04:28:33.505Z,62.95
2018-06-09T04:29:05.077Z,62.76
2018-06-09T04:29:36.681Z,63.13
2018-06-09T04:30:08.270Z,63.28
2018-06-09T04:30:39.874Z,62.61
2018-06-09T04:31:11.493Z,62.91
2018-06-09T04:31:43.060Z,62.74
2018-06-09T04:32:14.640Z,62.75
2018-06-09T04:32:46.233Z,62.73
2018-06-09T04:33:17.841Z,62.85
2018-06-09T04:33:49.449Z,62.66
2018-06-09T04:34:21.036Z,62.91
2018-06-09T04:34:52.618Z,62.46
2018-06-09T04:35:24.225Z,62.34
2018-06-09T04:35:55.866Z,62.42
2018-06-09T04:36:27.478Z,62.62
2018-06-09T04:36:59.086Z,62.81
2018-06-09T04:37:30.697Z,62.93
2018-06-09T04:38:02.301Z,62.86
2018-06-09T04:38:33.875Z,62.63
2018-06-09T04:39:05.525Z,63.50
2018-06-09T04:39:37.096Z,62.91
2018-06-09T04:40:08.682Z,62.86
2018-06-09T04:40:40.248Z,62.78
2018-06-09T04:41:11.882Z,62.80
2018-06-09T04:41:43.455Z,63.19
2018-06-09T04:42:15.024Z,62.67
2018-06-09T04:42:46.605Z,62.86
2018-06-09T04:43:18.200Z,62.66
2018-06-09T04:43:49.837Z,62.54
2018-06-09T04:44:21.422Z,62.63
2018-06-09T04:44:53.029Z,62.77
2018-06-09T04:45:24.633Z,62.65
2018-06-09T04:45:56.232Z,63.07
2018-06-09T04:46:27.890Z,62.82
2018-06-09T04:46:59.477Z,62.55
2018-06-09T04:47:31.092Z,62.66
2018-06-09T04:48:02.697Z,62.41
2018-06-09T04:48:34.301Z,62.37
2018-06-09T04:49:05.909Z,62.49
2018-06-09T04:49:37.494Z,62.33
2018-06-09T04:50:09.077Z,62.47
2018-06-09T04:50:40.645Z,62.31
2018-06-09T04:51:12.236Z,61.88
2018-06-09T04:51:43.894Z,62.40
2018-06-09T04:52:15.563Z,62.19
2018-06-09T04:52:47.146Z,62.27
2018-06-09T04:53:18.744Z,62.29
2018-06-09T04:53:50.355Z,62.10
2018-06-09T04:54:21.969Z,62.34
2018-06-09T04:54:53.557Z,62.05
2018-06-09T04:55:25.148Z,62.13
2018-06-09T04:55:56.741Z,61.94
2018-06-09T04:56:28.370Z,62.02
2018-06-09T04:56:59.954Z,61.72
2018-06-09T04:57:31.532Z,62.55
2018-06-09T04:58:03.110Z,62.27
2018-06-09T04:58:34.701Z,62.27
2018-06-09T04:59:06.284Z,62.27
2018-06-09T04:59:37.875Z,62.46
2018-06-09T05:00:09.493Z,62.17
2018-06-09T05:00:41.072Z,62.08
2018-06-09T05:01:12.658Z,62.19
2018-06-09T05:01:44.281Z,62.15
2018-06-09T05:02:15.909Z,62.33
2018-06-09T05:02:47.484Z,62.05
2018-06-09T05:03:19.056Z,62.27
2018-06-09T05:03:50.633Z,62.33
2018-06-09T05:04:22.241Z,62.30
2018-06-09T05:04:53.820Z,62.27
2018-06-09T05:05:25.402Z,62.49
2018-06-09T05:05:56.985Z,62.31
2018-06-09T05:06:28.575Z,62.25
2018-06-09T05:07:00.166Z,62.45
2018-06-09T05:07:31.794Z,62.60
2018-06-09T05:08:03.388Z,62.30
2018-06-09T05:08:34.973Z,62.50
2018-06-09T05:09:06.622Z,62.40
2018-06-09T05:09:38.195Z,62.40
2018-06-09T05:10:09.773Z,62.32
2018-06-09T05:10:41.354Z,62.36
2018-06-09T05:11:12.929Z,62.32
2018-06-09T05:11:44.552Z,62.33
2018-06-09T05:12:16.132Z,62.53
2018-06-09T05:12:47.734Z,62.54
2018-06-09T05:13:19.318Z,62.65
2018-06-09T05:13:50.889Z,62.68
2018-06-09T05:14:22.474Z,62.44
2018-06-09T05:14:54.044Z,62.69
2018-06-09T05:15:25.636Z,62.76
2018-06-09T05:15:57.246Z,62.77
2018-06-09T05:16:28.968Z,62.60
2018-06-09T05:17:00.558Z,62.65
2018-06-09T05:17:32.165Z,62.84
2018-06-09T05:18:03.770Z,62.67
2018-06-09T05:18:35.357Z,62.83
2018-06-09T05:19:06.966Z,62.73
2018-06-09T05:19:38.550Z,62.54
2018-06-09T05:20:10.124Z,62.67
2018-06-09T05:20:41.746Z,62.55
2018-06-09T05:21:13.320Z,62.47
2018-06-09T05:21:44.950Z,62.95
2018-06-09T05:22:16.544Z,62.80
2018-06-09T05:22:48.116Z,62.54
2018-06-09T05:23:19.697Z,62.54
2018-06-09T05:23:51.301Z,62.51
2018-06-09T05:24:22.885Z,62.67
2018-06-09T05:24:54.460Z,62.68
2018-06-09T05:25:26.042Z,62.68
2018-06-09T05:25:57.645Z,62.74
2018-06-09T05:26:29.250Z,62.83
2018-06-09T05:27:00.868Z,62.83
2018-06-09T05:27:32.450Z,63.08
2018-06-09T05:28:04.064Z,63.02
2018-06-09T05:28:35.738Z,63.17
2018-06-09T05:29:07.356Z,63.01
2018-06-09T05:29:38.938Z,63.02
2018-06-09T05:30:10.524Z,63.08
2018-06-09T05:30:42.134Z,63.15
2018-06-09T05:31:13.718Z,63.15
2018-06-09T05:31:45.298Z,62.97
2018-06-09T05:32:16.943Z,63.04
2018-06-09T05:32:48.530Z,63.23
2018-06-09T05:33:20.169Z,63.25
2018-06-09T05:33:51.754Z,63.37
2018-06-09T05:34:23.348Z,63.39
2018-06-09T05:34:54.943Z,63.62
2018-06-09T05:35:26.534Z,63.57
2018-06-09T05:35:58.099Z,63.49
2018-06-09T05:36:29.709Z,63.36
2018-06-09T05:37:01.321Z,63.47
2018-06-09T05:37:32.920Z,63.43
2018-06-09T05:38:04.534Z,63.44
2018-06-09T05:38:36.141Z,63.43
2018-06-09T05:39:07.786Z,63.43
2018-06-09T05:39:39.476Z,63.38
2018-06-09T05:40:11.068Z,63.41
2018-06-09T05:40:42.640Z,63.39
2018-06-09T05:41:14.231Z,63.42
2018-06-09T05:41:45.814Z,63.46
2018-06-09T05:42:17.397Z,63.63
2018-06-09T05:42:48.978Z,63.58
2018-06-09T05:43:20.621Z,63.52
2018-06-09T05:43:52.202Z,63.55
2018-06-09T05:44:23.785Z,63.58
2018-06-09T05:44:55.351Z,63.77
2018-06-09T05:45:26.930Z,63.94
2018-06-09T05:45:58.500Z,63.79
2018-06-09T05:46:30.110Z,63.48
2018-06-09T05:47:01.722Z,63.44
2018-06-09T05:47:33.309Z,63.77
2018-06-09T05:48:04.949Z,63.69
2018-06-09T05:48:36.553Z,63.84
2018-06-09T05:49:08.138Z,63.77
2018-06-09T05:49:39.721Z,63.73
2018-06-09T05:50:12.274Z,63.70
2018-06-09T05:50:43.869Z,63.71
2018-06-09T05:51:15.457Z,63.59
2018-06-09T05:51:47.066Z,63.63
2018-06-09T05:52:18.678Z,63.38
2018-06-09T05:52:50.269Z,63.59
2018-06-09T05:53:21.895Z,63.71
2018-06-09T05:53:53.487Z,63.45
2018-06-09T05:54:25.950Z,63.51
2018-06-09T05:54:57.903Z,63.93
2018-06-09T05:55:29.482Z,63.81
2018-06-09T05:56:01.090Z,63.87
2018-06-09T05:56:32.720Z,63.84
2018-06-09T05:57:04.303Z,63.92
2018-06-09T05:57:35.921Z,63.75
2018-06-09T05:58:07.816Z,63.71
2018-06-09T05:58:39.410Z,63.84
2018-06-09T05:59:11.008Z,63.62
2018-06-09T05:59:42.599Z,63.51
2018-06-09T06:00:14.177Z,63.57
2018-06-09T06:00:45.777Z,63.72
2018-06-09T06:01:17.372Z,63.83
2018-06-09T06:01:48.999Z,63.63
2018-06-09T06:02:20.590Z,63.69
2018-06-09T06:02:52.173Z,63.53
2018-06-09T06:03:23.817Z,63.62
2018-06-09T06:03:55.473Z,63.68
2018-06-09T06:04:27.060Z,64.08
2018-06-09T06:04:58.655Z,63.83
2018-06-09T06:05:30.246Z,63.88
2018-06-09T06:06:01.818Z,63.92
2018-06-09T06:06:33.391Z,63.92
2018-06-09T06:07:04.978Z,63.90
2018-06-09T06:07:36.557Z,63.85
2018-06-09T06:08:08.138Z,63.81
2018-06-09T06:08:39.727Z,63.59
2018-06-09T06:09:11.361Z,63.63
2018-06-09T06:09:42.962Z,63.63
2018-06-09T06:10:14.545Z,63.77
2018-06-09T06:10:46.146Z,63.85
2018-06-09T06:11:17.757Z,63.73
2018-06-09T06:11:49.346Z,63.79
2018-06-09T06:12:20.954Z,63.73
2018-06-09T06:12:52.571Z,63.83
2018-06-09T06:13:24.185Z,64.09
2018-06-09T06:13:55.793Z,63.94
2018-06-09T06:14:27.419Z,63.89
2018-06-09T06:14:59.013Z,63.96
2018-06-09T06:15:30.602Z,64.17
2018-06-09T06:16:02.190Z,63.94
2018-06-09T06:16:33.784Z,63.70
2018-06-09T06:17:05.412Z,64.10
2018-06-09T06:17:36.980Z,64.02
2018-06-09T06:18:08.548Z,64.02
2018-06-09T06:18:40.139Z,63.84
2018-06-09T06:19:11.749Z,64.17
2018-06-09T06:19:43.333Z,64.51
2018-06-09T06:20:14.922Z,64.20
2018-06-09T06:20:46.521Z,64.33
2018-06-09T06:21:18.126Z,64.26
2018-06-09T06:21:49.777Z,64.26
2018-06-09T06:22:21.349Z,64.26
2018-06-09T06:22:52.954Z,64.20
2018-06-09T06:23:24.567Z,64.33
2018-06-09T06:23:56.156Z,64.24
2018-06-09T06:24:27.806Z,64.19
2018-06-09T06:24:59.403Z,64.25
2018-06-09T06:25:30.990Z,64.19
2018-06-09T06:26:02.580Z,64.24
2018-06-09T06:26:34.166Z,64.21
2018-06-09T06:27:05.765Z,64.26
2018-06-09T06:27:37.373Z,64.38
2018-06-09T06:28:08.961Z,64.27
2018-06-09T06:28:40.540Z,64.54
2018-06-09T06:29:12.132Z,64.39
2018-06-09T06:29:43.704Z,64.35
2018-06-09T06:30:15.313Z,64.34
2018-06-09T06:30:46.941Z,64.33
2018-06-09T06:31:18.536Z,64.40
2018-06-09T06:31:50.119Z,64.33
2018-06-09T06:32:21.766Z,64.30
2018-06-09T06:32:53.397Z,64.40
2018-06-09T06:33:24.990Z,64.38
2018-06-09T06:33:56.560Z,64.33
2018-06-09T06:34:28.170Z,64.97
2018-06-09T06:34:59.750Z,64.91
2018-06-09T06:35:31.353Z,64.94
2018-06-09T06:36:03.266Z,64.74
2018-06-09T06:36:35.749Z,64.80
2018-06-09T06:37:07.320Z,64.54
2018-06-09T06:37:38.909Z,64.33
2018-06-09T06:38:11.142Z,64.43
2018-06-09T06:38:42.743Z,64.39
2018-06-09T06:39:14.349Z,64.83
2018-06-09T06:39:45.928Z,64.73
2018-06-09T06:40:17.915Z,64.82
2018-06-09T06:40:49.525Z,65.00
2018-06-09T06:41:21.104Z,64.94
2018-06-09T06:41:52.700Z,64.73
2018-06-09T06:42:24.294Z,64.57
2018-06-09T06:42:55.873Z,64.60
2018-06-09T06:43:27.541Z,65.49
2018-06-09T06:43:59.132Z,64.76
2018-06-09T06:44:30.708Z,64.24
2018-06-09T06:45:02.330Z,63.97
2018-06-09T06:45:33.907Z,63.58
2018-06-09T06:46:05.499Z,64.63
2018-06-09T06:46:37.073Z,64.02
2018-06-09T06:47:08.718Z,63.99